Time;durP1;ratioP1;P1;durP2;ratioP2;P2;SDS_P1;SDS_P2;PMS_P1;PMS_P2;Temp;Humidity;BMP_temperature;BMP_pressure;BME280_temperature;BME280_humidity;BME280_pressure;Samples;Min_cycle;Max_cycle;Signal;HPM_P1;HPM_P2
2022/04/15 00:02:24;;;;;;;3.80;3.30;;;;;;;13.32;95.73;98670.13;5073956;28;20258;-65
2022/04/15 00:04:50;;;;;;;3.97;3.23;;;;;;;13.33;95.77;98674.47;5073717;28;20263;-65
2022/04/15 00:07:17;;;;;;;4.10;3.23;;;;;;;13.31;95.96;98678.19;5073929;28;20243;-65
2022/04/15 00:09:44;;;;;;;6.07;3.70;;;;;;;13.25;96.68;98681.28;5074090;28;20214;-65
2022/04/15 00:12:17;;;;;;;5.83;3.87;;;;;;;13.26;96.38;98688.31;5073572;28;20211;-65
2022/04/15 00:14:44;;;;;;;4.13;3.30;;;;;;;13.20;96.05;98688.75;5073540;28;20222;-64
2022/04/15 00:17:12;;;;;;;4.57;3.40;;;;;;;13.18;96.35;98690.66;5073564;28;20219;-64
2022/04/15 00:19:38;;;;;;;4.00;3.40;;;;;;;13.10;97.32;98693.88;5073787;28;20210;-64
2022/04/15 00:22:05;;;;;;;5.03;3.67;;;;;;;13.08;97.64;98694.94;5073710;28;20218;-64
2022/04/15 00:24:31;;;;;;;3.43;3.13;;;;;;;13.07;97.89;98695.88;5073652;28;20224;-64
2022/04/15 00:26:57;;;;;;;5.20;3.77;;;;;;;13.07;98.12;98698.53;5061081;28;20245;-64
2022/04/15 00:29:24;;;;;;;4.67;3.20;;;;;;;13.04;98.56;98698.75;5073660;28;20213;-64
2022/04/15 00:31:50;;;;;;;3.70;3.30;;;;;;;13.00;98.83;98694.59;5073476;28;20217;-64
2022/04/15 00:34:18;;;;;;;6.73;3.67;;;;;;;13.03;99.26;98692.56;5073442;28;20223;-64
2022/04/15 00:36:44;;;;;;;3.77;3.47;;;;;;;12.99;99.67;98695.56;5073426;28;20215;-64
2022/04/15 00:39:11;;;;;;;4.23;3.33;;;;;;;12.91;100.00;98687.25;5073247;28;20228;-64
2022/04/15 00:41:37;;;;;;;4.67;3.70;;;;;;;12.93;100.00;98690.66;5073401;28;20237;-64
2022/04/15 00:44:04;;;;;;;4.37;3.33;;;;;;;12.93;100.00;98690.66;5073129;28;20215;-64
2022/04/15 00:46:30;;;;;;;4.63;3.60;;;;;;;12.95;100.00;98694.06;5073014;28;20218;-64
2022/04/15 00:48:57;;;;;;;4.07;3.43;;;;;;;12.94;100.00;98695.00;5073300;28;20580;-64
2022/04/15 00:51:24;;;;;;;4.57;3.90;;;;;;;12.96;100.00;98696.63;5071141;28;20218;-64
2022/04/15 00:53:53;;;;;;;5.93;3.30;;;;;;;12.95;100.00;98691.41;5067702;28;20223;-65
2022/04/15 00:56:22;;;;;;;3.83;3.30;;;;;;;12.96;100.00;98693.97;5073314;28;20296;-64
2022/04/15 00:58:51;;;;;;;4.03;3.30;;;;;;;12.93;100.00;98701.25;5070558;28;20211;-64
2022/04/15 01:01:18;;;;;;;3.80;3.40;;;;;;;12.92;100.00;98695.13;5071747;28;20209;-64
2022/04/15 01:03:44;;;;;;;4.57;3.60;;;;;;;12.88;100.00;98695.41;5073200;28;20513;-64
2022/04/15 01:06:12;;;;;;;5.00;3.63;;;;;;;12.85;100.00;98698.28;5072644;28;20689;-63
2022/04/15 01:08:43;;;;;;;3.93;3.50;;;;;;;12.80;100.00;98701.28;5072971;28;20601;-64
2022/04/15 01:11:12;;;;;;;4.37;3.53;;;;;;;12.73;100.00;98705.31;5073006;28;20220;-65
2022/04/15 01:13:40;;;;;;;4.33;3.47;;;;;;;12.63;100.00;98703.38;5073170;28;20222;-64
2022/04/15 01:16:08;;;;;;;3.67;3.37;;;;;;;12.53;100.00;98697.00;5072998;28;20218;-63
2022/04/15 01:18:34;;;;;;;4.30;3.67;;;;;;;12.44;100.00;98702.94;5071150;28;20272;-64
2022/04/15 01:21:01;;;;;;;5.27;3.70;;;;;;;12.35;100.00;98700.91;5072884;28;20217;-64
2022/04/15 01:23:29;;;;;;;9.63;4.17;;;;;;;12.29;100.00;98701.31;5073876;28;20215;-63
2022/04/15 01:25:55;;;;;;;4.47;3.43;;;;;;;12.25;100.00;98699.81;5077415;28;20218;-65
2022/04/15 01:28:22;;;;;;;5.07;3.93;;;;;;;12.23;100.00;98699.91;5077176;28;20238;-64
2022/04/15 01:30:49;;;;;;;4.10;3.70;;;;;;;12.22;100.00;98714.13;5077181;28;20216;-64
2022/04/15 01:33:16;;;;;;;4.23;3.83;;;;;;;12.21;100.00;98716.88;5066054;28;20216;-64
2022/04/15 01:35:42;;;;;;;4.10;3.70;;;;;;;12.23;100.00;98709.69;5062605;28;20224;-64
2022/04/15 01:38:14;;;;;;;5.67;4.20;;;;;;;12.26;100.00;98705.03;5062306;28;20217;-64
2022/04/15 01:40:42;;;;;;;5.47;4.00;;;;;;;12.31;100.00;98710.00;5063054;28;20249;-64
2022/04/15 01:43:09;;;;;;;4.40;3.53;;;;;;;12.38;100.00;98708.63;5065384;28;20697;-64
2022/04/15 01:45:35;;;;;;;4.40;4.00;;;;;;;12.46;100.00;98716.94;5060679;28;20219;-64
2022/04/15 01:48:02;;;;;;;5.30;4.00;;;;;;;12.53;100.00;98718.22;5061782;28;20245;-64
2022/04/15 01:50:29;;;;;;;6.87;4.10;;;;;;;12.58;100.00;98713.44;5062719;28;20572;-64
2022/04/15 01:52:58;;;;;;;5.33;4.50;;;;;;;12.57;100.00;98719.69;5065631;28;20219;-64
2022/04/15 01:55:25;;;;;;;5.33;4.40;;;;;;;12.51;100.00;98709.50;5062128;28;20242;-64
2022/04/15 01:57:52;;;;;;;5.53;4.27;;;;;;;12.43;100.00;98711.84;5061633;28;20220;-64
2022/04/15 02:00:19;;;;;;;4.87;4.37;;;;;;;12.34;100.00;98709.81;5062305;28;20214;-64
2022/04/15 02:02:46;;;;;;;6.10;4.63;;;;;;;12.27;100.00;98712.03;5065635;28;20212;-64
2022/04/15 02:05:12;;;;;;;7.40;4.60;;;;;;;12.24;100.00;98711.38;5062235;28;20596;-64
2022/04/15 02:07:39;;;;;;;4.90;4.50;;;;;;;12.20;100.00;98715.16;5061485;28;20246;-64
2022/04/15 02:10:07;;;;;;;6.67;4.90;;;;;;;12.19;100.00;98718.78;5059604;28;20711;-64
2022/04/15 02:12:34;;;;;;;5.90;5.10;;;;;;;12.13;100.00;98719.19;5065221;28;20601;-65
2022/04/15 02:15:02;;;;;;;6.17;5.00;;;;;;;12.04;100.00;98714.50;5065127;28;20216;-64
2022/04/15 02:17:28;;;;;;;7.20;5.23;;;;;;;11.98;100.00;98714.91;5076066;28;20217;-64
2022/04/15 02:19:55;;;;;;;5.60;5.00;;;;;;;11.94;100.00;98713.41;5076048;28;20216;-64
2022/04/15 02:22:21;;;;;;;7.13;5.40;;;;;;;11.91;100.00;98714.44;5070805;28;20212;-64
2022/04/15 02:24:47;;;;;;;6.43;5.70;;;;;;;11.87;100.00;98712.94;5075654;28;20218;-64
2022/04/15 02:27:14;;;;;;;8.47;6.30;;;;;;;11.77;100.00;98706.56;5075582;28;20590;-65
2022/04/15 02:29:40;;;;;;;7.60;5.97;;;;;;;11.69;100.00;98718.59;5075650;28;20684;-64
2022/04/15 02:32:09;;;;;;;8.17;5.83;;;;;;;11.62;100.00;98720.75;5075633;28;20222;-64
2022/04/15 02:34:36;;;;;;;6.80;5.87;;;;;;;11.52;100.00;98716.13;5075581;28;20660;-64
2022/04/15 02:37:02;;;;;;;7.93;6.57;;;;;;;11.45;100.00;98720.13;5074159;28;20215;-64
2022/04/15 02:39:29;;;;;;;6.87;5.90;;;;;;;11.35;100.00;98719.84;5075839;28;20248;-64
2022/04/15 02:41:56;;;;;;;9.00;5.80;;;;;;;11.27;100.00;98726.56;5075532;28;20239;-64
2022/04/15 02:44:23;;;;;;;7.07;5.57;;;;;;;11.22;100.00;98724.22;5075544;28;20242;-63
2022/04/15 02:46:50;;;;;;;9.97;7.10;;;;;;;11.19;100.00;98721.75;5075266;28;20669;-65
2022/04/15 02:49:17;;;;;;;7.90;6.13;;;;;;;11.09;100.00;98720.63;5075445;28;20253;-64
2022/04/15 02:51:44;;;;;;;8.07;6.57;;;;;;;11.06;100.00;98722.63;5075118;28;20705;-64
2022/04/15 02:54:10;;;;;;;7.33;6.57;;;;;;;11.05;100.00;98726.19;5075179;28;20212;-64
2022/04/15 02:56:37;;;;;;;10.00;6.67;;;;;;;11.09;100.00;98718.00;5075217;28;20226;-64
2022/04/15 02:59:03;;;;;;;8.50;6.27;;;;;;;11.11;100.00;98716.09;5075518;28;20223;-63
2022/04/15 03:01:30;;;;;;;7.93;6.27;;;;;;;11.17;100.00;98714.84;5073517;28;20218;-63
2022/04/15 03:03:56;;;;;;;7.17;6.27;;;;;;;11.23;100.00;98720.63;5075520;28;20238;-63
2022/04/15 03:06:24;;;;;;;7.90;5.70;;;;;;;11.34;100.00;98718.16;5075062;28;20215;-66
2022/04/15 03:08:50;;;;;;;6.00;5.40;;;;;;;11.44;100.00;98719.25;5075242;28;20234;-63
2022/04/15 03:11:17;;;;;;;6.57;5.40;;;;;;;11.51;100.00;98723.25;5075233;28;20219;-63
2022/04/15 03:13:44;;;;;;;7.93;5.93;;;;;;;11.56;100.00;98722.94;5075150;28;20272;-66
2022/04/15 03:16:11;;;;;;;8.10;5.80;;;;;;;11.57;100.00;98719.34;5075194;28;20226;-65
2022/04/15 03:18:38;;;;;;;8.00;5.87;;;;;;;11.52;100.00;98716.13;5075368;28;20223;-64
2022/04/15 03:21:04;;;;;;;6.50;5.73;;;;;;;11.48;100.00;98711.97;5074682;28;20681;-64
2022/04/15 03:23:32;;;;;;;6.70;5.50;;;;;;;11.44;100.00;98716.59;5074596;28;20633;-64
2022/04/15 03:25:58;;;;;;;6.93;5.63;;;;;;;11.38;100.00;98716.16;5074814;28;20212;-64
2022/04/15 03:28:25;;;;;;;6.50;5.63;;;;;;;11.36;100.00;98718.91;5073058;28;20239;-64
2022/04/15 03:30:51;;;;;;;6.17;5.57;;;;;;;11.38;100.00;98713.53;5063675;28;20299;-64
2022/04/15 03:33:18;;;;;;;8.57;5.37;;;;;;;11.33;100.00;98716.47;5074719;28;20215;-64
2022/04/15 03:35:44;;;;;;;6.70;5.50;;;;;;;11.30;100.00;98721.06;5074315;28;20211;-64
2022/04/15 03:38:11;;;;;;;6.57;5.50;;;;;;;11.23;100.00;98727.69;5074631;28;20223;-64
2022/04/15 03:40:38;;;;;;;5.67;4.97;;;;;;;11.18;100.00;98722.69;5074390;28;20611;-64
2022/04/15 03:43:05;;;;;;;7.90;5.80;;;;;;;11.12;100.00;98724.91;5074222;28;20227;-64
2022/04/15 03:45:31;;;;;;;8.00;5.70;;;;;;;11.06;100.00;98727.91;5074121;28;20280;-64
2022/04/15 03:47:58;;;;;;;6.57;5.47;;;;;;;10.96;100.00;98734.69;5073984;28;20239;-64
2022/04/15 03:50:25;;;;;;;6.87;5.70;;;;;;;10.84;100.00;98732.81;5074383;28;20219;-63
2022/04/15 03:52:51;;;;;;;7.20;5.50;;;;;;;10.73;100.00;98740.53;5074039;28;20216;-63
2022/04/15 03:55:19;;;;;;;7.17;6.20;;;;;;;10.60;100.00;98735.16;5072563;28;20213;-65
2022/04/15 03:57:48;;;;;;;7.33;6.10;;;;;;;10.50;100.00;98733.13;5074069;28;20605;-64
2022/04/15 04:00:16;;;;;;;8.23;5.97;;;;;;;10.44;100.00;98733.47;5074172;28;20215;-65
2022/04/15 04:02:44;;;;;;;8.83;6.60;;;;;;;10.39;100.00;98740.84;5074047;28;20221;-65
2022/04/15 04:05:10;;;;;;;8.47;6.03;;;;;;;10.35;100.00;98739.31;5073966;28;20221;-65
2022/04/15 04:07:37;;;;;;;8.80;6.70;;;;;;;10.29;100.00;98739.69;5073634;28;20222;-65
2022/04/15 04:10:04;;;;;;;8.87;6.57;;;;;;;10.19;100.00;98733.22;5073792;28;20306;-65
2022/04/15 04:12:33;;;;;;;7.40;6.47;;;;;;;10.12;100.00;98731.88;5073560;28;20212;-66
2022/04/15 04:15:01;;;;;;;7.57;6.17;;;;;;;10.08;100.00;98736.47;5073840;28;20222;-65
2022/04/15 04:17:27;;;;;;;7.20;6.30;;;;;;;10.03;100.00;98743.81;5073942;28;20222;-65
2022/04/15 04:19:54;;;;;;;8.30;6.17;;;;;;;10.02;100.00;98746.50;5071744;28;20707;-64
2022/04/15 04:22:20;;;;;;;8.00;6.13;;;;;;;10.01;100.00;98747.44;5073923;28;20581;-63
2022/04/15 04:24:47;;;;;;;9.67;6.40;;;;;;;9.99;100.00;98744.06;5073675;28;20218;-63
2022/04/15 04:27:13;;;;;;;7.67;6.20;;;;;;;10.03;100.00;98742.94;5073638;28;20219;-65
2022/04/15 04:29:40;;;;;;;7.37;6.30;;;;;;;10.02;100.00;98746.50;5073481;28;20256;-65
2022/04/15 04:32:08;;;;;;;8.00;6.57;;;;;;;10.01;100.00;98748.31;5073622;28;20208;-64
2022/04/15 04:34:35;;;;;;;8.40;6.80;;;;;;;10.02;100.00;98749.16;5073246;28;20211;-64
2022/04/15 04:37:01;;;;;;;8.33;6.50;;;;;;;10.04;100.00;98744.69;5073614;28;20592;-65
2022/04/15 04:39:29;;;;;;;8.47;6.30;;;;;;;10.05;100.00;98751.66;5073581;28;20215;-64
2022/04/15 04:41:56;;;;;;;8.73;6.80;;;;;;;10.10;100.00;98760.19;5073478;28;20701;-64
2022/04/15 04:44:23;;;;;;;8.37;6.27;;;;;;;10.16;100.00;98759.81;5071510;28;20211;-64
2022/04/15 04:46:50;;;;;;;8.60;6.17;;;;;;;10.26;100.00;98761.84;5062700;28;20669;-64
2022/04/15 04:49:18;;;;;;;6.80;6.10;;;;;;;10.34;100.00;98764.88;5073030;28;20234;-64
2022/04/15 04:51:44;;;;;;;8.33;6.50;;;;;;;10.42;100.00;98767.06;5073233;28;20211;-64
2022/04/15 04:54:11;;;;;;;11.63;6.20;;;;;;;10.48;100.00;98769.38;5073169;28;20219;-64
2022/04/15 04:56:37;;;;;;;7.47;6.40;;;;;;;10.56;100.00;98778.56;5072983;28;20223;-64
2022/04/15 04:59:04;;;;;;;7.07;5.90;;;;;;;10.60;100.00;98773.94;5072087;28;20688;-64
2022/04/15 05:01:31;;;;;;;7.47;6.07;;;;;;;10.66;100.00;98770.91;5073242;28;20238;-64
2022/04/15 05:03:57;;;;;;;7.37;5.90;;;;;;;10.69;100.00;98778.66;5073192;28;20240;-64
2022/04/15 05:06:25;;;;;;;8.37;6.27;;;;;;;10.74;100.00;98784.53;5072864;28;20242;-64
2022/04/15 05:08:51;;;;;;;6.47;5.70;;;;;;;10.81;100.00;98783.22;5073084;28;20243;-64
2022/04/15 05:11:18;;;;;;;7.07;5.67;;;;;;;10.87;100.00;98786.34;5071964;28;20218;-64
2022/04/15 05:13:44;;;;;;;8.57;6.10;;;;;;;10.93;100.00;98787.78;5072161;28;20215;-64
2022/04/15 05:16:11;;;;;;;7.23;5.30;;;;;;;11.03;100.00;98796.88;5072786;28;20676;-64
2022/04/15 05:18:37;;;;;;;6.10;5.50;;;;;;;11.06;100.00;98794.06;5073065;28;20212;-65
2022/04/15 05:21:04;;;;;;;5.83;4.90;;;;;;;11.10;100.00;98798.19;5072988;28;20218;-64
2022/04/15 05:23:31;;;;;;;5.47;4.90;;;;;;;11.16;100.00;98792.53;5072560;28;20207;-64
2022/04/15 05:25:58;;;;;;;8.53;5.33;;;;;;;11.21;100.00;98801.91;5072675;28;20564;-64
2022/04/15 05:28:24;;;;;;;6.40;5.57;;;;;;;11.30;100.00;98803.97;5072606;28;20267;-64
2022/04/15 05:30:51;;;;;;;9.57;5.83;;;;;;;11.36;100.00;98811.53;5072727;28;20215;-64
2022/04/15 05:33:17;;;;;;;7.03;5.43;;;;;;;11.43;100.00;98807.56;5072921;28;20207;-64
2022/04/15 05:35:44;;;;;;;7.03;6.00;;;;;;;11.51;100.00;98809.75;5072580;28;20223;-64
2022/04/15 05:38:10;;;;;;;6.70;5.37;;;;;;;11.61;100.00;98816.19;5071081;28;20213;-64
2022/04/15 05:40:38;;;;;;;7.97;5.97;;;;;;;11.72;100.00;98814.56;5072447;28;20239;-64
2022/04/15 05:43:05;;;;;;;8.47;5.87;;;;;;;11.82;100.00;98817.50;5072386;28;20290;-64
2022/04/15 05:45:31;;;;;;;9.90;6.17;;;;;;;11.94;100.00;98819.34;5072671;28;20215;-64
2022/04/15 05:47:58;;;;;;;7.57;5.60;;;;;;;12.02;100.00;98812.63;5072779;28;20243;-64
2022/04/15 05:50:25;;;;;;;7.67;6.13;;;;;;;12.06;100.00;98816.78;5072742;28;20211;-64
2022/04/15 05:52:51;;;;;;;7.47;5.90;;;;;;;12.17;100.00;98819.56;5072847;28;20216;-64
2022/04/15 05:55:17;;;;;;;7.67;6.10;;;;;;;12.33;100.00;98830.03;5072839;28;20218;-65
2022/04/15 05:57:45;;;;;;;7.00;6.30;;;;;;;12.45;100.00;98826.56;5072827;28;20220;-64
2022/04/15 06:00:13;;;;;;;6.43;5.43;;;;;;;12.53;100.00;98824.28;5072303;28;20663;-64
2022/04/15 06:02:39;;;;;;;6.70;5.73;;;;;;;12.55;100.00;98827.69;5072611;28;20221;-65
2022/04/15 06:05:07;;;;;;;8.40;6.27;;;;;;;12.57;100.00;98831.06;5071008;28;20218;-64
2022/04/15 06:07:33;;;;;;;6.60;5.70;;;;;;;12.57;100.00;98833.72;5072359;28;20681;-64
2022/04/15 06:10:00;;;;;;;7.17;5.53;;;;;;;12.57;100.00;98836.38;5074128;28;20239;-64
2022/04/15 06:12:54;;;;;;;6.90;5.67;;;;;;;12.68;100.00;98833.88;5070645;28;20570;-65
2022/04/15 06:15:23;;;;;;;7.07;5.37;;;;;;;12.84;100.00;98835.38;5067546;28;20240;-65
2022/04/15 06:17:49;;;;;;;7.07;5.73;;;;;;;12.92;100.00;98837.53;5076158;28;20223;-64
2022/04/15 06:20:16;;;;;;;7.07;5.10;;;;;;;12.97;100.00;98840.75;5075938;28;20212;-64
2022/04/15 06:22:43;;;;;;;6.30;5.70;;;;;;;13.06;100.00;98846.28;5075708;28;20223;-64
2022/04/15 06:25:09;;;;;;;7.07;5.93;;;;;;;13.14;100.00;98837.81;5076062;28;20213;-64
2022/04/15 06:27:36;;;;;;;8.37;5.53;;;;;;;13.21;100.00;98841.75;5075963;28;20214;-64
2022/04/15 06:30:04;;;;;;;6.23;5.60;;;;;;;13.27;100.00;98841.34;5073856;28;20249;-64
2022/04/15 06:32:31;;;;;;;7.73;5.70;;;;;;;13.37;100.00;98851.22;5075522;28;20674;-64
2022/04/15 06:34:58;;;;;;;6.47;5.87;;;;;;;13.47;100.00;98846.09;5076015;28;20226;-64
2022/04/15 06:37:24;;;;;;;7.40;6.60;;;;;;;13.58;100.00;98854.19;5075899;28;20219;-65
2022/04/15 06:39:51;;;;;;;9.20;7.80;;;;;;;13.64;100.00;98843.13;5075810;28;20212;-64
2022/04/15 06:42:21;;;;;;;7.70;6.73;;;;;;;13.73;100.00;98847.78;5075799;28;20282;-64
2022/04/15 06:44:47;;;;;;;8.93;7.50;;;;;;;13.83;100.00;98848.84;5075354;28;20240;-64
2022/04/15 06:47:14;;;;;;;8.30;7.30;;;;;;;13.90;100.00;98839.47;5075619;28;20219;-65
2022/04/15 06:49:42;;;;;;;9.90;8.27;;;;;;;14.00;100.00;98845.84;5075644;28;20240;-64
2022/04/15 06:52:10;;;;;;;11.93;9.50;;;;;;;14.11;100.00;98844.09;5075672;28;20214;-66
2022/04/15 06:54:36;;;;;;;14.57;11.43;;;;;;;14.26;99.42;98847.50;5075200;28;20221;-64
2022/04/15 06:57:03;;;;;;;16.30;11.60;;;;;;;14.44;96.44;98847.00;5073659;28;20212;-64
2022/04/15 06:59:30;;;;;;;14.73;11.13;;;;;;;14.35;96.80;98854.81;5075094;28;20214;-63
2022/04/15 07:01:56;;;;;;;13.90;12.00;;;;;;;14.39;97.38;98854.47;5075072;28;20219;-63
2022/04/15 07:04:23;;;;;;;15.73;11.60;;;;;;;14.47;96.48;98852.09;5075181;28;20219;-63
2022/04/15 07:06:51;;;;;;;13.80;10.87;;;;;;;14.59;95.91;98850.31;5075293;28;20215;-64
2022/04/15 07:09:18;;;;;;;14.73;11.50;;;;;;;14.69;94.21;98846.88;5075030;28;20248;-64
2022/04/15 07:11:44;;;;;;;14.73;11.27;;;;;;;14.77;94.18;98849.81;5074944;28;20251;-64
2022/04/15 07:14:11;;;;;;;14.53;10.90;;;;;;;15.03;92.35;98848.69;5072307;28;20211;-63
2022/04/15 07:16:37;;;;;;;13.50;10.77;;;;;;;15.04;91.98;98857.56;5069132;28;20214;-63
2022/04/15 07:19:04;;;;;;;10.47;8.90;;;;;;;15.06;90.17;98843.16;5074912;28;20214;-63
2022/04/15 07:21:31;;;;;;;11.83;9.93;;;;;;;15.16;90.31;98851.28;5072498;28;20285;-63
2022/04/15 07:23:59;;;;;;;11.80;9.77;;;;;;;15.32;91.17;98847.38;5074752;28;20214;-63
2022/04/15 07:26:25;;;;;;;11.63;10.03;;;;;;;15.37;90.16;98849.66;5074641;28;20213;-64
2022/04/15 07:28:52;;;;;;;12.60;10.40;;;;;;;15.34;90.98;98847.25;5074818;28;20590;-63
2022/04/15 07:31:18;;;;;;;12.77;9.93;;;;;;;15.37;89.67;98852.31;5074926;28;20230;-64
2022/04/15 07:33:46;;;;;;;11.73;10.50;;;;;;;15.52;87.71;98853.81;5063770;28;20216;-63
2022/04/15 07:38:53;;;;;;;13.37;10.57;;;;;;;15.51;87.28;98858.28;5074076;28;20716;-63
2022/04/15 07:41:21;;;;;;;13.87;9.73;;;;;;;15.60;87.72;98854.94;5074629;28;20238;-63
2022/04/15 07:43:48;;;;;;;12.07;9.87;;;;;;;15.69;88.49;98861.31;5074232;28;20227;-63
2022/04/15 07:46:14;;;;;;;12.10;10.40;;;;;;;15.72;86.82;98861.09;5074319;28;20219;-63
2022/04/15 07:48:41;;;;;;;12.50;10.60;;;;;;;15.83;85.69;98856.63;5072367;28;20218;-64
2022/04/15 07:51:07;;;;;;;12.63;10.73;;;;;;;15.85;85.92;98845.84;5074153;28;20677;-66
2022/04/15 07:53:34;;;;;;;16.73;11.67;;;;;;;15.76;88.03;98851.91;5074463;28;20234;-63
2022/04/15 07:56:01;;;;;;;12.00;10.70;;;;;;;16.00;83.62;98848.13;5074244;28;20565;-63
2022/04/15 07:58:29;;;;;;;12.77;10.87;;;;;;;16.14;81.98;98854.06;5074345;28;20227;-63
2022/04/15 08:00:59;;;;;;;13.63;11.90;;;;;;;16.25;79.02;98862.06;5073924;28;20226;-63
2022/04/15 08:03:26;;;;;;;12.37;10.27;;;;;;;16.25;79.52;98851.38;5073973;28;20280;-63
2022/04/15 08:05:53;;;;;;;12.23;10.87;;;;;;;16.32;78.92;98852.59;5073714;28;20711;-62
2022/04/15 08:08:19;;;;;;;11.50;10.30;;;;;;;16.47;78.31;98859.34;5073668;28;20703;-63
2022/04/15 08:10:47;;;;;;;11.50;10.10;;;;;;;16.59;78.18;98857.53;5073820;28;20266;-64
2022/04/15 08:13:14;;;;;;;15.93;11.57;;;;;;;16.68;77.16;98860.28;5073510;28;20229;-63
2022/04/15 08:15:41;;;;;;;14.13;10.90;;;;;;;16.80;75.92;98859.28;5072691;28;20219;-64
2022/04/15 08:18:08;;;;;;;12.90;11.50;;;;;;;16.79;74.01;98862.94;5073849;28;20583;-64
2022/04/15 08:20:34;;;;;;;12.80;11.43;;;;;;;16.85;73.59;98864.22;5073740;28;20219;-64
2022/04/15 08:23:03;;;;;;;11.60;9.67;;;;;;;16.92;74.89;98858.25;5073405;28;20203;-64
2022/04/15 08:25:30;;;;;;;13.00;11.60;;;;;;;16.93;71.22;98870.63;5073553;28;20261;-63
2022/04/15 08:27:56;;;;;;;12.03;10.83;;;;;;;17.04;71.69;98865.25;5073729;28;20234;-63
2022/04/15 08:30:23;;;;;;;14.97;12.53;;;;;;;17.27;75.16;98864.16;5066576;28;20231;-63
2022/04/15 08:32:52;;;;;;;13.20;11.80;;;;;;;17.33;72.68;98869.00;5073607;28;20215;-63
2022/04/15 08:35:19;;;;;;;12.10;10.90;;;;;;;17.53;73.37;98868.16;5073519;28;20215;-64
2022/04/15 08:37:46;;;;;;;15.20;12.17;;;;;;;17.69;71.59;98871.19;5073114;28;20223;-63
2022/04/15 08:40:13;;;;;;;12.93;11.40;;;;;;;17.58;68.35;98873.97;5071648;28;20215;-63
2022/04/15 08:42:40;;;;;;;13.13;11.83;;;;;;;17.46;67.78;98869.66;5073493;28;20210;-63
2022/04/15 08:45:08;;;;;;;15.97;13.10;;;;;;;17.42;68.65;98865.56;5073502;28;20211;-63
2022/04/15 08:47:36;;;;;;;14.47;12.50;;;;;;;17.40;68.14;98875.53;5073391;28;20207;-63
2022/04/15 08:50:05;;;;;;;14.00;12.17;;;;;;;17.42;68.40;98868.22;5073071;28;20234;-63
2022/04/15 08:52:32;;;;;;;15.33;12.00;;;;;;;17.54;68.03;98872.53;5073107;28;20243;-63
2022/04/15 08:54:59;;;;;;;13.33;11.63;;;;;;;17.65;69.13;98871.59;5073326;28;20216;-62
2022/04/15 08:57:26;;;;;;;14.00;12.60;;;;;;;17.76;68.76;98876.88;5072872;28;20253;-63
2022/04/15 08:59:53;;;;;;;13.47;11.80;;;;;;;17.79;67.28;98876.63;5072851;28;20245;-65
2022/04/15 09:02:31;;;;;;;13.67;12.17;;;;;;;17.80;68.40;98876.47;5072870;28;20221;-63
2022/04/15 09:04:57;;;;;;;13.50;11.07;;;;;;;17.88;69.89;98882.03;5073146;28;21690;-61
2022/04/15 09:07:28;;;;;;;15.37;13.03;;;;;;;18.08;65.99;98886.47;5071191;28;20227;-61
2022/04/15 09:09:56;;;;;;;13.43;12.07;;;;;;;18.06;64.20;98891.13;5072951;28;20242;-61
2022/04/15 09:12:25;;;;;;;13.50;12.10;;;;;;;18.06;65.07;98883.09;5073070;28;20298;-61
2022/04/15 09:14:52;;;;;;;13.13;11.30;;;;;;;18.03;65.41;98885.16;5072750;28;20226;-62
2022/04/15 09:17:23;;;;;;;11.27;10.07;;;;;;;18.05;66.47;98885.88;5073071;28;20215;-61
2022/04/15 09:19:51;;;;;;;11.87;10.63;;;;;;;18.21;66.50;98888.91;5072816;28;20227;-61
2022/04/15 09:22:18;;;;;;;13.43;11.30;;;;;;;18.46;64.15;98889.31;5072995;28;20216;-61
2022/04/15 09:24:49;;;;;;;13.03;11.37;;;;;;;18.60;63.50;98886.22;5072840;28;20222;-62
2022/04/15 09:27:15;;;;;;;12.90;10.57;;;;;;;18.66;63.33;98893.72;5072826;28;20590;-61
2022/04/15 09:29:42;;;;;;;13.00;10.67;;;;;;;18.57;63.10;98886.53;5072521;28;20235;-63
2022/04/15 09:32:10;;;;;;;13.47;11.30;;;;;;;18.60;63.83;98891.59;5071221;28;20223;-63
2022/04/15 09:34:53;;;;;;;15.03;13.43;;;;;;;18.54;60.96;98889.47;5072623;28;20212;-64
2022/04/15 09:37:20;;;;;;;14.10;12.70;;;;;;;18.49;61.59;98899.75;5072730;28;20583;-64
2022/04/15 09:40:07;;;;;;;13.00;11.60;;;;;;;18.54;62.43;98885.94;5072869;28;20219;-64
2022/04/15 09:42:35;;;;;;;14.30;12.00;;;;;;;18.61;61.82;98887.09;5072603;28;20207;-63
2022/04/15 09:45:12;;;;;;;15.80;13.87;;;;;;;18.45;60.11;98884.09;5069761;28;20214;-63
2022/04/15 09:47:39;;;;;;;11.40;10.40;;;;;;;18.41;59.70;98891.53;5067332;28;20578;-63
2022/04/15 09:50:07;;;;;;;14.87;12.83;;;;;;;18.40;58.71;98884.50;5076355;28;20287;-63
2022/04/15 09:52:33;;;;;;;15.23;13.60;;;;;;;18.56;57.62;98890.19;5076730;28;20207;-61
2022/04/15 09:55:02;;;;;;;15.17;13.57;;;;;;;18.60;57.52;98888.91;5076188;28;20216;-62
2022/04/15 09:57:34;;;;;;;15.97;14.37;;;;;;;18.70;60.29;98887.09;5075176;28;20223;-61
2022/04/15 10:00:03;;;;;;;15.83;14.13;;;;;;;18.68;56.83;98881.06;5076383;28;20268;-63
2022/04/15 10:02:35;;;;;;;15.67;14.03;;;;;;;18.65;57.09;98884.00;5076435;28;20218;-63
2022/04/15 10:05:03;;;;;;;16.60;14.73;;;;;;;18.47;56.86;98882.13;5076311;28;20222;-63
2022/04/15 10:07:31;;;;;;;16.43;13.73;;;;;;;18.58;56.89;98885.53;5076123;28;20207;-64
2022/04/15 10:09:59;;;;;;;14.23;12.77;;;;;;;18.70;56.76;98883.56;5076050;28;20243;-64
2022/04/15 10:12:26;;;;;;;14.70;13.13;;;;;;;18.87;58.40;98882.91;5071114;28;20216;-63
2022/04/15 10:14:54;;;;;;;15.50;14.00;;;;;;;18.98;58.62;98875.59;5076112;28;20241;-64
2022/04/15 10:17:22;;;;;;;13.87;12.57;;;;;;;18.90;55.93;98880.78;5076159;28;20577;-62
2022/04/15 10:19:49;;;;;;;16.00;13.77;;;;;;;18.86;55.95;98875.84;5075912;28;20219;-62
2022/04/15 10:22:17;;;;;;;16.33;13.03;;;;;;;18.83;55.67;98882.34;5075947;28;20219;-64
2022/04/15 10:24:43;;;;;;;13.50;12.10;;;;;;;18.92;55.68;98875.28;5074300;28;20597;-66
2022/04/15 10:27:13;;;;;;;13.27;11.90;;;;;;;18.94;55.43;98879.53;5075678;28;20218;-66
2022/04/15 10:29:39;;;;;;;11.60;10.43;;;;;;;19.06;53.94;98875.72;5075728;28;20226;-65
2022/04/15 10:32:14;;;;;;;12.00;10.80;;;;;;;19.00;53.67;98876.28;5075798;28;20226;-64
2022/04/15 10:34:46;;;;;;;16.17;12.60;;;;;;;19.05;54.63;98878.53;5065267;28;20260;-63
2022/04/15 10:37:12;;;;;;;15.40;12.60;;;;;;;19.20;54.27;98872.66;5075955;28;20215;-63
2022/04/15 10:39:47;;;;;;;14.80;13.20;;;;;;;19.16;55.27;98868.53;5075932;28;20207;-65
2022/04/15 10:42:18;;;;;;;12.97;10.80;;;;;;;19.32;54.10;98865.31;5075838;28;20259;-63
2022/04/15 10:44:45;;;;;;;11.93;10.67;;;;;;;19.37;52.13;98871.94;5075386;28;20211;-64
2022/04/15 10:47:27;;;;;;;11.23;10.03;;;;;;;19.36;51.30;98872.94;5075634;28;20223;-64
2022/04/15 10:49:55;;;;;;;11.07;9.67;;;;;;;19.50;50.45;98867.13;5069560;28;20697;-64
2022/04/15 10:52:25;;;;;;;12.23;10.27;;;;;;;19.59;49.66;98877.00;5072027;28;20216;-64
2022/04/15 10:54:54;;;;;;;11.07;9.97;;;;;;;19.30;50.99;98870.81;5059278;28;20223;-64
2022/04/15 10:57:22;;;;;;;10.30;9.30;;;;;;;19.05;51.73;98876.72;5061254;28;20216;-64
2022/04/15 11:02:42;;;;;;;9.90;8.80;;;;;;;19.10;51.22;98869.13;5075200;28;20213;-63
2022/04/15 11:05:12;;;;;;;11.00;9.03;;;;;;;19.42;51.04;98875.03;5075379;28;20720;-63
2022/04/15 11:07:50;;;;;;;11.00;9.60;;;;;;;19.51;49.68;98868.81;5075019;28;20278;-63
2022/04/15 11:10:37;;;;;;;9.70;8.70;;;;;;;19.54;51.16;98873.91;5074944;28;20778;-64
2022/04/15 11:13:03;;;;;;;11.83;10.43;;;;;;;19.35;51.22;98873.91;5074766;28;20215;-63
2022/04/15 11:15:54;;;;;;;10.73;9.40;;;;;;;19.37;51.99;98871.06;5073560;28;20223;-63
2022/04/15 11:18:22;;;;;;;9.27;8.23;;;;;;;19.16;52.79;98873.91;5067840;28;20242;-64
2022/04/15 11:20:49;;;;;;;9.10;7.77;;;;;;;19.14;52.96;98870.50;5075025;28;20575;-64
2022/04/15 11:23:17;;;;;;;10.27;8.63;;;;;;;19.18;53.30;98865.69;5074879;28;20216;-64
2022/04/15 11:25:44;;;;;;;10.77;9.67;;;;;;;19.28;51.78;98862.09;5074563;28;20666;-63
2022/04/15 11:28:11;;;;;;;10.23;9.13;;;;;;;19.34;51.72;98864.19;5074842;28;20560;-64
2022/04/15 11:30:37;;;;;;;10.80;9.70;;;;;;;19.37;50.25;98860.34;5074574;28;20240;-64
2022/04/15 11:33:05;;;;;;;10.27;8.73;;;;;;;19.56;51.19;98861.19;5074899;28;20237;-65